createdAt,value
2023-04-13T00:02:24.244Z,1.00
2023-04-13T00:04:51.615Z,1.35
2023-04-13T00:07:19.202Z,1.17
2023-04-13T00:09:47.183Z,1.02
2023-04-13T00:12:15.905Z,1.25
2023-04-13T00:14:44.041Z,1.15
2023-04-13T00:17:11.128Z,1.10
2023-04-13T00:19:38.270Z,0.98
2023-04-13T00:22:05.324Z,0.98
2023-04-13T00:24:33.745Z,1.20
2023-04-13T00:27:01.146Z,1.20
2023-04-13T00:29:28.203Z,1.23
2023-04-13T00:31:55.915Z,1.27
2023-04-13T00:34:23.040Z,1.33
2023-04-13T00:36:50.360Z,1.13
2023-04-13T00:39:23.127Z,1.63
2023-04-13T00:41:53.387Z,1.45
2023-04-13T00:44:21.606Z,1.10
2023-04-13T00:46:50.232Z,1.10
2023-04-13T00:49:18.038Z,1.20
2023-04-13T00:51:45.405Z,1.20
2023-04-13T00:54:16.884Z,1.23
2023-04-13T00:56:44.050Z,1.17
2023-04-13T00:59:14.220Z,1.10
2023-04-13T01:01:50.497Z,1.20
2023-04-13T01:04:21.131Z,1.20
2023-04-13T01:06:51.388Z,0.98
2023-04-13T01:09:19.968Z,1.50
2023-04-13T01:11:57.688Z,1.40
2023-04-13T01:14:26.118Z,1.25
2023-04-13T01:16:56.732Z,1.30
2023-04-13T01:21:54.410Z,1.25
2023-04-13T01:24:53.423Z,1.10
2023-04-13T01:27:42.258Z,1.10
2023-04-13T01:30:10.958Z,1.17
2023-04-13T01:32:38.990Z,1.20
2023-04-13T01:35:06.841Z,1.40
2023-04-13T01:37:34.252Z,1.08
2023-04-13T01:40:01.365Z,0.90
2023-04-13T01:42:28.653Z,1.38
2023-04-13T01:44:55.716Z,1.17
2023-04-13T01:47:22.934Z,1.30
2023-04-13T01:49:52.522Z,1.15
2023-04-13T01:52:20.900Z,1.20
2023-04-13T01:54:48.036Z,1.20
2023-04-13T01:57:15.888Z,1.20
2023-04-13T01:59:42.969Z,1.00
2023-04-13T02:02:10.417Z,1.30
2023-04-13T02:04:38.515Z,1.30
2023-04-13T02:07:05.599Z,1.10
2023-04-13T02:09:33.176Z,1.00
2023-04-13T02:12:00.292Z,1.27
2023-04-13T02:14:27.341Z,1.35
2023-04-13T02:16:54.736Z,1.20
2023-04-13T02:19:21.878Z,1.30
2023-04-13T02:21:48.944Z,1.48
2023-04-13T02:24:16.966Z,1.00
2023-04-13T02:26:44.090Z,1.17
2023-04-13T02:29:11.220Z,1.25
2023-04-13T02:31:43.380Z,1.00
2023-04-13T02:34:11.240Z,1.30
2023-04-13T02:36:39.271Z,1.10
2023-04-13T02:39:06.436Z,1.10
2023-04-13T02:41:34.106Z,1.15
2023-04-13T02:44:01.603Z,0.90
2023-04-13T02:46:32.150Z,1.02
2023-04-13T02:48:59.943Z,1.20
2023-04-13T02:51:28.025Z,1.00
2023-04-13T02:53:57.786Z,1.05
2023-04-13T02:56:28.355Z,1.15
2023-04-13T02:58:55.684Z,1.20
2023-04-13T03:01:24.985Z,1.13
2023-04-13T03:03:52.188Z,1.17
2023-04-13T03:06:19.216Z,1.42
2023-04-13T03:08:46.375Z,0.98
2023-04-13T03:11:13.494Z,1.25
2023-04-13T03:13:40.847Z,0.88
2023-04-13T03:16:11.183Z,1.10
2023-04-13T03:18:38.380Z,1.00
2023-04-13T03:21:08.844Z,1.20
2023-04-13T03:23:36.351Z,1.20
2023-04-13T03:26:03.388Z,0.90
2023-04-13T03:28:30.428Z,1.20
2023-04-13T03:30:57.804Z,1.27
2023-04-13T03:33:24.929Z,1.40
2023-04-13T03:35:51.993Z,0.98
2023-04-13T03:38:19.035Z,1.20
2023-04-13T03:40:46.176Z,1.30
2023-04-13T03:43:13.587Z,1.20
2023-04-13T03:45:40.687Z,1.50
2023-04-13T03:48:07.968Z,1.10
2023-04-13T03:50:35.430Z,1.08
2023-04-13T03:53:02.554Z,1.27
2023-04-13T03:55:29.633Z,1.38
2023-04-13T03:57:56.745Z,1.13
2023-04-13T04:00:23.808Z,1.17
2023-04-13T04:02:51.531Z,1.20
2023-04-13T04:05:18.750Z,1.17
2023-04-13T04:07:45.897Z,1.02
2023-04-13T04:10:12.961Z,1.20
2023-04-13T04:12:40.122Z,1.77
2023-04-13T04:15:07.949Z,1.05
2023-04-13T04:17:35.404Z,1.15
2023-04-13T04:20:04.017Z,1.60
2023-04-13T04:22:34.669Z,1.30
2023-04-13T04:25:01.823Z,1.20
2023-04-13T04:27:28.987Z,1.33
2023-04-13T04:29:59.260Z,1.10
2023-04-13T04:32:26.434Z,1.35
2023-04-13T04:34:53.569Z,1.20
2023-04-13T04:37:25.998Z,1.55
2023-04-13T04:39:53.361Z,1.58
2023-04-13T04:42:20.835Z,1.20
2023-04-13T04:44:50.315Z,1.35
2023-04-13T04:47:17.562Z,1.20
2023-04-13T04:49:44.629Z,1.30
2023-04-13T04:52:12.577Z,1.30
2023-04-13T04:54:40.068Z,1.27
2023-04-13T04:57:10.456Z,1.40
2023-04-13T04:59:37.624Z,1.00
2023-04-13T05:02:04.743Z,1.63
2023-04-13T05:04:31.865Z,1.50
2023-04-13T05:06:58.897Z,1.88
2023-04-13T05:09:25.975Z,0.95
2023-04-13T05:11:53.038Z,1.10
2023-04-13T05:14:20.214Z,1.20
2023-04-13T05:16:47.227Z,1.10
2023-04-13T05:19:14.394Z,1.48
2023-04-13T05:21:41.530Z,1.30
2023-04-13T05:24:08.781Z,1.63
2023-04-13T05:26:35.893Z,1.10
2023-04-13T05:29:04.513Z,1.38
2023-04-13T05:31:31.569Z,1.23
2023-04-13T05:33:58.652Z,1.00
2023-04-13T05:36:26.762Z,1.38
2023-04-13T05:38:53.910Z,1.20
2023-04-13T05:41:21.184Z,1.40
2023-04-13T05:43:49.270Z,1.40
2023-04-13T05:46:16.359Z,1.27
2023-04-13T05:48:44.170Z,1.13
2023-04-13T05:51:15.600Z,1.20
2023-04-13T05:53:42.693Z,1.65
2023-04-13T05:56:09.903Z,1.17
2023-04-13T05:58:37.131Z,1.40
2023-04-13T06:01:04.319Z,1.13
2023-04-13T06:03:32.467Z,1.30
2023-04-13T06:06:00.380Z,2.33
2023-04-13T06:08:32.640Z,1.40
2023-04-13T06:11:00.121Z,1.63
2023-04-13T06:13:27.708Z,1.23
2023-04-13T06:15:54.880Z,1.20
2023-04-13T06:18:21.930Z,1.15
2023-04-13T06:20:49.090Z,1.70
2023-04-13T06:23:16.133Z,1.40
2023-04-13T06:25:43.236Z,1.50
2023-04-13T06:28:10.300Z,1.63
2023-04-13T06:30:38.158Z,1.35
2023-04-13T06:33:05.618Z,1.80
2023-04-13T06:35:33.398Z,1.42
2023-04-13T06:38:01.540Z,1.50
2023-04-13T06:40:28.720Z,1.40
2023-04-13T06:42:56.209Z,1.40
2023-04-13T06:45:23.322Z,1.73
2023-04-13T06:47:50.466Z,1.60
2023-04-13T06:50:17.554Z,1.42
2023-04-13T06:52:45.390Z,1.20
2023-04-13T06:55:12.647Z,1.63
2023-04-13T06:57:39.763Z,1.60
2023-04-13T07:00:15.401Z,1.35
2023-04-13T07:02:53.712Z,1.40
2023-04-13T07:05:21.000Z,1.75
2023-04-13T07:07:48.024Z,2.15
2023-04-13T07:10:15.160Z,1.67
2023-04-13T07:12:42.404Z,1.52
2023-04-13T07:15:09.760Z,1.88
2023-04-13T07:17:37.132Z,1.75
2023-04-13T07:20:05.712Z,1.95
2023-04-13T07:22:33.644Z,1.50
2023-04-13T07:25:00.885Z,1.73
2023-04-13T07:27:28.113Z,1.75
2023-04-13T07:29:55.462Z,1.67
2023-04-13T07:32:30.323Z,1.67
2023-04-13T07:35:01.347Z,2.08
2023-04-13T07:37:28.569Z,3.63
2023-04-13T07:39:55.658Z,1.75
2023-04-13T07:42:22.753Z,1.58
2023-04-13T07:44:50.100Z,2.15
2023-04-13T07:47:17.209Z,2.03
2023-04-13T07:49:44.261Z,2.30
2023-04-13T07:52:13.808Z,2.33
2023-04-13T07:54:41.273Z,1.60
2023-04-13T07:57:08.308Z,2.05
2023-04-13T07:59:38.941Z,2.90
2023-04-13T08:02:07.724Z,1.70
2023-04-13T08:04:36.096Z,2.10
2023-04-13T08:07:04.285Z,2.03
2023-04-13T08:09:39.948Z,1.95
2023-04-13T08:12:07.265Z,1.60
2023-04-13T08:14:34.440Z,1.38
2023-04-13T08:17:04.159Z,1.77
2023-04-13T08:19:31.415Z,1.75
2023-04-13T08:22:01.940Z,1.80
2023-04-13T08:26:58.283Z,1.75
2023-04-13T08:29:25.861Z,1.65
2023-04-13T08:31:52.942Z,2.05
2023-04-13T08:34:20.376Z,1.90
2023-04-13T08:36:47.658Z,1.70
2023-04-13T08:39:14.935Z,1.67
2023-04-13T08:41:45.085Z,1.80
2023-04-13T08:44:15.663Z,1.92
2023-04-13T08:46:42.921Z,1.98
2023-04-13T08:49:11.241Z,1.55
2023-04-13T08:51:38.670Z,2.10
2023-04-13T08:54:05.706Z,1.17
2023-04-13T08:56:44.513Z,1.60
2023-04-13T08:59:15.060Z,1.65
2023-04-13T09:01:42.493Z,1.58
2023-04-13T09:04:10.555Z,1.52
2023-04-13T09:06:41.257Z,1.23
2023-04-13T09:09:15.034Z,1.48
2023-04-13T09:11:42.979Z,1.50
2023-04-13T09:14:10.307Z,1.23
2023-04-13T09:16:41.039Z,1.10
2023-04-13T09:19:08.666Z,1.35
2023-04-13T09:21:39.246Z,1.25
2023-04-13T09:26:46.265Z,1.30
2023-04-13T09:29:14.144Z,1.23
2023-04-13T09:31:42.926Z,1.30
2023-04-13T09:34:11.608Z,0.93
2023-04-13T09:36:46.609Z,1.02
2023-04-13T09:39:26.728Z,1.02
2023-04-13T09:41:54.288Z,1.20
2023-04-13T09:44:24.128Z,1.30
2023-04-13T09:46:58.651Z,1.17
2023-04-13T09:49:26.174Z,1.63
2023-04-13T09:51:53.690Z,1.17
2023-04-13T09:54:23.870Z,1.42
2023-04-13T09:59:27.204Z,1.00
2023-04-13T10:01:54.799Z,1.20
2023-04-13T10:04:21.942Z,0.90
2023-04-13T10:06:48.947Z,0.90
2023-04-13T10:09:16.469Z,0.95
2023-04-13T10:11:45.967Z,1.20
2023-04-13T10:14:20.897Z,1.02
2023-04-13T10:17:17.622Z,1.00
2023-04-13T10:19:46.205Z,0.88
2023-04-13T10:22:13.265Z,0.80
2023-04-13T10:24:40.341Z,1.00
2023-04-13T10:27:17.248Z,0.88
2023-04-13T10:29:44.379Z,0.80
2023-04-13T10:32:20.655Z,1.00
2023-04-13T10:34:47.874Z,1.00
2023-04-13T10:37:19.552Z,0.88
2023-04-13T10:39:46.991Z,1.33
2023-04-13T10:42:15.969Z,0.82
2023-04-13T10:44:48.174Z,0.80
2023-04-13T10:47:16.220Z,0.82
2023-04-13T10:49:43.864Z,0.60
2023-04-13T10:52:11.612Z,0.90
2023-04-13T10:54:39.298Z,0.90
2023-04-13T10:57:06.663Z,1.05
2023-04-13T10:59:58.085Z,0.80
2023-04-13T11:02:27.134Z,0.70
2023-04-13T11:04:54.761Z,0.80
2023-04-13T11:07:28.768Z,0.70
2023-04-13T11:12:29.668Z,0.60
2023-04-13T11:14:56.738Z,17.48
2023-04-13T11:17:23.854Z,0.57
2023-04-13T11:19:51.484Z,0.88
2023-04-13T11:22:19.017Z,0.63
2023-04-13T11:24:47.557Z,0.77
2023-04-13T11:27:21.594Z,0.70
2023-04-13T11:30:05.170Z,0.80
2023-04-13T11:32:35.446Z,0.73
2023-04-13T11:35:08.078Z,1.13
2023-04-13T11:37:45.698Z,0.73
2023-04-13T11:40:14.837Z,0.88
2023-04-13T11:42:43.384Z,0.90
2023-04-13T11:45:11.214Z,0.70
2023-04-13T11:47:38.272Z,0.52
2023-04-13T11:50:05.844Z,0.70
2023-04-13T11:52:33.568Z,0.70
2023-04-13T11:55:10.671Z,0.70
2023-04-13T11:57:46.952Z,0.68
2023-04-13T12:00:24.287Z,0.85
2023-04-13T12:03:01.962Z,0.50
2023-04-13T12:05:32.405Z,0.80
2023-04-13T12:08:01.162Z,0.70
2023-04-13T12:10:39.466Z,0.90
2023-04-13T12:16:03.926Z,0.70
2023-04-13T12:18:37.361Z,0.90
2023-04-13T12:21:06.120Z,0.80
2023-04-13T12:23:33.341Z,0.90
2023-04-13T12:26:18.756Z,0.80
2023-04-13T12:28:49.814Z,0.65
2023-04-13T12:31:16.985Z,0.60
2023-04-13T12:33:44.164Z,0.82
2023-04-13T12:36:11.391Z,0.63
2023-04-13T12:38:41.579Z,0.63
2023-04-13T12:41:09.579Z,0.75
2023-04-13T12:43:36.750Z,0.80
2023-04-13T12:46:03.854Z,0.68
2023-04-13T12:48:31.041Z,0.80
2023-04-13T12:50:58.053Z,0.68
2023-04-13T12:53:25.149Z,0.75
2023-04-13T12:55:52.139Z,0.70
2023-04-13T12:58:19.183Z,0.50
2023-04-13T13:00:46.292Z,0.50
2023-04-13T13:03:14.497Z,0.40
2023-04-13T13:05:42.230Z,0.80
2023-04-13T13:08:09.484Z,0.57
2023-04-13T13:10:39.605Z,0.40
2023-04-13T13:13:06.710Z,0.40
2023-04-13T13:15:33.965Z,0.50
2023-04-13T13:18:03.114Z,0.35
2023-04-13T13:20:30.881Z,0.40
2023-04-13T13:22:58.014Z,0.60
2023-04-13T13:25:25.141Z,0.50
2023-04-13T13:30:22.248Z,0.60
2023-04-13T13:32:49.436Z,0.40
2023-04-13T13:35:16.603Z,0.40
2023-04-13T13:37:43.729Z,0.55
2023-04-13T13:40:13.578Z,0.57
2023-04-13T13:42:51.159Z,0.45
2023-04-13T13:45:18.849Z,0.60
2023-04-13T13:47:48.190Z,0.60
2023-04-13T13:50:15.299Z,0.40
2023-04-13T13:52:55.218Z,0.40
2023-04-13T13:55:22.940Z,0.75
2023-04-13T13:57:50.134Z,0.50
2023-04-13T14:00:17.820Z,0.50
2023-04-13T14:02:45.585Z,1.77
2023-04-13T14:05:15.581Z,0.90
2023-04-13T14:07:43.090Z,1.05
2023-04-13T14:10:12.815Z,0.88
2023-04-13T14:12:40.601Z,0.77
2023-04-13T14:15:08.257Z,0.98
2023-04-13T14:17:36.648Z,0.85
2023-04-13T14:20:12.825Z,0.60
2023-04-13T14:22:40.531Z,0.68
2023-04-13T14:25:08.912Z,0.70
2023-04-13T14:27:36.151Z,0.63
2023-04-13T14:30:03.356Z,0.50
2023-04-13T14:32:30.607Z,0.60
2023-04-13T14:34:57.937Z,0.90
2023-04-13T14:37:24.996Z,1.15
2023-04-13T14:39:52.743Z,0.77
2023-04-13T14:42:19.863Z,0.88
2023-04-13T14:44:47.115Z,1.58
2023-04-13T14:47:15.846Z,2.00
2023-04-13T14:49:43.237Z,0.90
2023-04-13T14:52:10.417Z,1.17
2023-04-13T14:54:37.672Z,0.60
2023-04-13T14:57:05.384Z,0.52
2023-04-13T14:59:32.622Z,0.50
2023-04-13T15:02:00.876Z,0.60
2023-04-13T15:04:29.795Z,0.80
2023-04-13T15:06:56.994Z,0.80
2023-04-13T15:09:24.063Z,5.03
2023-04-13T15:11:51.855Z,2.47
2023-04-13T15:14:19.296Z,0.60
2023-04-13T15:16:46.590Z,1.30
2023-04-13T15:19:13.648Z,0.60
2023-04-13T15:21:41.547Z,1.30
2023-04-13T15:24:09.133Z,0.90
2023-04-13T15:26:40.434Z,0.68
2023-04-13T15:29:07.978Z,0.60
2023-04-13T15:31:38.538Z,0.70
2023-04-13T15:34:06.408Z,1.30
2023-04-13T15:36:33.554Z,0.60
2023-04-13T15:39:00.904Z,0.63
2023-04-13T15:41:28.123Z,0.55
2023-04-13T15:43:56.337Z,0.68
2023-04-13T15:46:23.410Z,0.60
2023-04-13T15:48:50.890Z,0.85
2023-04-13T15:51:18.156Z,0.60
2023-04-13T15:53:45.317Z,0.60
2023-04-13T15:56:12.362Z,0.80
2023-04-13T15:58:39.408Z,0.85
2023-04-13T16:01:08.009Z,0.80
2023-04-13T16:03:35.346Z,1.92
2023-04-13T16:06:02.671Z,1.98
2023-04-13T16:08:29.737Z,2.63
2023-04-13T16:10:56.763Z,3.40
2023-04-13T16:13:23.893Z,1.55
2023-04-13T16:15:57.417Z,1.20
2023-04-13T16:18:28.491Z,1.13
2023-04-13T16:20:58.922Z,0.85
2023-04-13T16:25:53.061Z,1.15
2023-04-13T16:28:20.338Z,1.10
2023-04-13T16:30:47.861Z,1.40
2023-04-13T16:33:14.986Z,0.80
2023-04-13T16:35:42.096Z,1.10
2023-04-13T16:38:09.100Z,0.80
2023-04-13T16:40:36.368Z,1.05
2023-04-13T16:43:04.674Z,1.40
2023-04-13T16:45:32.361Z,1.08
2023-04-13T16:47:59.454Z,1.40
2023-04-13T16:50:30.393Z,1.13
2023-04-13T16:52:58.847Z,1.10
2023-04-13T16:55:28.084Z,1.10
2023-04-13T16:57:55.406Z,1.00
2023-04-13T17:00:22.666Z,0.85
2023-04-13T17:02:50.001Z,1.40
2023-04-13T17:05:17.240Z,1.10
2023-04-13T17:07:44.774Z,1.30
2023-04-13T17:10:12.914Z,0.88
2023-04-13T17:12:40.267Z,0.90
2023-04-13T17:15:07.867Z,0.82
2023-04-13T17:17:35.227Z,1.15
2023-04-13T17:20:02.357Z,1.10
2023-04-13T17:22:29.452Z,1.20
2023-04-13T17:24:56.728Z,0.88
2023-04-13T17:27:23.742Z,1.40
2023-04-13T17:29:50.827Z,0.90
2023-04-13T17:32:19.363Z,1.33
2023-04-13T17:34:46.736Z,1.55
2023-04-13T17:37:13.772Z,1.45
2023-04-13T17:39:46.194Z,1.92
2023-04-13T17:42:13.745Z,0.93
2023-04-13T17:44:40.804Z,1.25
2023-04-13T17:47:07.911Z,0.98
2023-04-13T17:49:34.949Z,1.10
2023-04-13T17:52:02.033Z,1.00
2023-04-13T17:54:29.214Z,1.50
2023-04-13T17:56:56.296Z,2.42
2023-04-13T17:59:23.402Z,1.52
2023-04-13T18:01:52.099Z,1.70
2023-04-13T18:04:19.561Z,1.00
2023-04-13T18:06:46.956Z,1.45
2023-04-13T18:09:14.239Z,0.98
2023-04-13T18:11:41.424Z,2.50
2023-04-13T18:14:12.213Z,3.38
2023-04-13T18:16:39.736Z,3.03
2023-04-13T18:19:06.787Z,2.58
2023-04-13T18:21:33.919Z,1.48
2023-04-13T18:24:01.723Z,1.50
2023-04-13T18:26:29.372Z,1.40
2023-04-13T18:28:56.528Z,1.17
2023-04-13T18:31:23.766Z,1.10
2023-04-13T18:33:50.928Z,1.30
2023-04-13T18:36:18.269Z,1.17
2023-04-13T18:38:45.504Z,1.15
2023-04-13T18:41:12.651Z,0.80
2023-04-13T18:43:39.974Z,1.17
2023-04-13T18:46:07.902Z,0.95
2023-04-13T18:48:35.287Z,0.95
2023-04-13T18:51:03.459Z,1.63
2023-04-13T18:53:31.008Z,3.35
2023-04-13T18:55:58.351Z,1.90
2023-04-13T18:58:25.510Z,1.40
2023-04-13T19:00:52.518Z,1.45
2023-04-13T19:03:19.768Z,1.80
2023-04-13T19:05:47.192Z,1.50
2023-04-13T19:08:15.290Z,1.33
2023-04-13T19:10:42.429Z,1.80
2023-04-13T19:13:09.503Z,4.00
2023-04-13T19:15:36.808Z,2.22
2023-04-13T19:18:04.400Z,3.28
2023-04-13T19:20:31.685Z,3.45
2023-04-13T19:22:58.697Z,3.72
2023-04-13T19:25:25.953Z,3.63
2023-04-13T19:27:53.117Z,3.83
2023-04-13T19:30:20.169Z,3.28
2023-04-13T19:32:48.212Z,3.30
2023-04-13T19:35:15.459Z,2.53
2023-04-13T19:37:42.592Z,2.50
2023-04-13T19:40:09.961Z,3.78
2023-04-13T19:42:37.535Z,4.15
2023-04-13T19:45:05.058Z,3.75
2023-04-13T19:47:32.186Z,4.35
2023-04-13T19:50:00.009Z,5.13
2023-04-13T19:52:27.357Z,4.85
2023-04-13T19:54:54.471Z,4.60
2023-04-13T19:57:21.474Z,4.28
2023-04-13T19:59:48.525Z,3.92
2023-04-13T20:02:15.799Z,4.25
2023-04-13T20:04:44.898Z,5.07
2023-04-13T20:07:12.280Z,5.50
2023-04-13T20:09:39.364Z,5.22
2023-04-13T20:12:06.632Z,6.40
2023-04-13T20:14:33.725Z,8.20
2023-04-13T20:17:00.802Z,8.45
2023-04-13T20:19:27.845Z,6.70
2023-04-13T20:21:54.924Z,7.07
2023-04-13T20:24:21.975Z,7.43
2023-04-13T20:26:49.063Z,7.22
2023-04-13T20:29:19.055Z,6.20
2023-04-13T20:31:46.328Z,5.65
2023-04-13T20:34:13.567Z,5.75
2023-04-13T20:36:40.719Z,5.43
2023-04-13T20:39:09.453Z,4.05
2023-04-13T20:41:36.678Z,5.82
2023-04-13T20:44:04.271Z,5.93
2023-04-13T20:46:35.089Z,5.15
2023-04-13T20:49:03.702Z,6.25
2023-04-13T20:51:31.322Z,5.93
2023-04-13T20:54:00.838Z,6.50
2023-04-13T20:56:28.152Z,11.02
2023-04-13T20:58:57.586Z,7.40
2023-04-13T21:01:25.245Z,7.28
2023-04-13T21:03:52.787Z,8.75
2023-04-13T21:06:22.740Z,7.30
2023-04-13T21:08:49.912Z,9.93
2023-04-13T21:11:16.950Z,15.02
2023-04-13T21:13:44.101Z,13.40
2023-04-13T21:16:12.076Z,12.82
2023-04-13T21:18:39.306Z,7.35
2023-04-13T21:21:06.730Z,4.80
2023-04-13T21:23:36.156Z,4.93
2023-04-13T21:26:03.648Z,9.63
2023-04-13T21:28:30.763Z,12.55
2023-04-13T21:30:57.873Z,8.48
2023-04-13T21:33:24.952Z,9.73
2023-04-13T21:35:52.123Z,8.13
2023-04-13T21:38:19.145Z,6.70
2023-04-13T21:40:46.277Z,4.78
2023-04-13T21:43:13.392Z,7.25
2023-04-13T21:45:40.500Z,5.18
2023-04-13T21:48:07.529Z,3.95
2023-04-13T21:50:34.564Z,3.70
2023-04-13T21:53:01.614Z,3.35
2023-04-13T21:55:28.707Z,3.65
2023-04-13T21:57:55.889Z,3.17
2023-04-13T22:00:23.018Z,2.95
2023-04-13T22:02:52.131Z,3.65
2023-04-13T22:05:19.456Z,4.10
2023-04-13T22:07:46.497Z,4.10
2023-04-13T22:10:13.606Z,3.30
2023-04-13T22:12:40.890Z,3.63
2023-04-13T22:15:08.342Z,4.85
2023-04-13T22:17:36.174Z,4.38
2023-04-13T22:20:04.595Z,4.80
2023-04-13T22:22:31.711Z,5.00
2023-04-13T22:24:58.752Z,5.70
2023-04-13T22:27:26.198Z,5.90
2023-04-13T22:29:54.875Z,4.70
2023-04-13T22:32:21.986Z,4.72
2023-04-13T22:34:49.162Z,4.88
2023-04-13T22:37:17.486Z,4.18
2023-04-13T22:39:44.926Z,5.13
2023-04-13T22:42:12.066Z,4.82
2023-04-13T22:44:39.145Z,4.82
2023-04-13T22:47:06.317Z,5.38
2023-04-13T22:49:33.460Z,3.80
2023-04-13T22:52:00.506Z,4.10
2023-04-13T22:54:27.537Z,3.90
2023-04-13T22:56:54.612Z,3.50
2023-04-13T22:59:21.792Z,3.38
2023-04-13T23:01:49.017Z,2.17
2023-04-13T23:04:16.523Z,1.30
2023-04-13T23:06:43.736Z,1.70
2023-04-13T23:09:10.868Z,1.65
2023-04-13T23:11:37.980Z,1.75
2023-04-13T23:14:06.610Z,2.60
2023-04-13T23:16:34.232Z,2.20
2023-04-13T23:19:01.549Z,1.50
2023-04-13T23:21:29.545Z,2.10
2023-04-13T23:23:56.586Z,2.05
2023-04-13T23:26:23.713Z,2.10
2023-04-13T23:28:50.868Z,2.50
2023-04-13T23:31:17.998Z,1.73
2023-04-13T23:33:45.160Z,1.83
2023-04-13T23:36:12.528Z,1.27
2023-04-13T23:38:39.644Z,1.30
2023-04-13T23:41:06.773Z,1.52
2023-04-13T23:43:33.929Z,2.05
2023-04-13T23:46:01.079Z,2.20
2023-04-13T23:48:28.194Z,2.63
2023-04-13T23:50:55.481Z,3.47
2023-04-13T23:53:23.011Z,2.17
2023-04-13T23:55:50.318Z,2.63
2023-04-13T23:58:17.510Z,3.00
